createdAt,value
2023-02-13T00:01:08.331Z,9.88
2023-02-13T00:03:44.436Z,9.45
2023-02-13T00:06:17.862Z,9.43
2023-02-13T00:08:52.714Z,9.33
2023-02-13T00:11:24.303Z,9.00
2023-02-13T00:13:55.948Z,9.50
2023-02-13T00:16:28.695Z,9.28
2023-02-13T00:19:04.091Z,9.18
2023-02-13T00:21:38.763Z,9.00
2023-02-13T00:24:16.803Z,9.08
2023-02-13T00:26:47.657Z,8.55
2023-02-13T00:29:18.300Z,9.23
2023-02-13T00:31:49.029Z,9.33
2023-02-13T00:34:21.371Z,9.40
2023-02-13T00:36:52.405Z,9.43
2023-02-13T00:39:22.994Z,9.20
2023-02-13T00:41:53.565Z,9.38
2023-02-13T00:44:24.184Z,8.85
2023-02-13T00:46:54.813Z,8.75
2023-02-13T00:49:28.858Z,9.35
2023-02-13T00:51:59.452Z,8.78
2023-02-13T00:54:29.979Z,8.30
2023-02-13T00:57:00.517Z,8.33
2023-02-13T00:59:31.076Z,8.75
2023-02-13T01:02:02.693Z,8.65
2023-02-13T01:04:33.462Z,8.20
2023-02-13T01:07:04.004Z,7.72
2023-02-13T01:09:34.468Z,8.63
2023-02-13T01:12:05.025Z,8.08
2023-02-13T01:14:35.903Z,8.03
2023-02-13T01:17:06.967Z,7.53
2023-02-13T01:19:37.857Z,8.15
2023-02-13T01:22:10.413Z,6.97
2023-02-13T01:24:40.860Z,7.83
2023-02-13T01:27:11.711Z,7.25
2023-02-13T01:29:42.725Z,7.55
2023-02-13T01:32:13.710Z,7.12
2023-02-13T01:34:44.233Z,7.20
2023-02-13T01:37:15.191Z,7.10
2023-02-13T01:39:45.820Z,6.70
2023-02-13T01:42:19.665Z,6.80
2023-02-13T01:44:55.022Z,6.40
2023-02-13T01:47:45.202Z,6.50
2023-02-13T01:50:24.433Z,6.15
2023-02-13T01:53:00.393Z,6.30
2023-02-13T01:55:32.649Z,5.58
2023-02-13T01:58:09.098Z,5.08
2023-02-13T02:00:40.890Z,5.35
2023-02-13T02:03:14.385Z,5.10
2023-02-13T02:05:45.531Z,5.20
2023-02-13T02:08:18.039Z,4.83
2023-02-13T02:10:48.637Z,4.65
2023-02-13T02:13:21.986Z,4.30
2023-02-13T02:15:53.371Z,4.28
2023-02-13T02:18:25.596Z,4.55
2023-02-13T02:21:16.936Z,4.20
2023-02-13T02:24:21.534Z,4.30
2023-02-13T02:26:54.908Z,4.10
2023-02-13T02:29:44.787Z,4.03
2023-02-13T02:32:47.285Z,4.40
2023-02-13T02:35:38.703Z,4.00
2023-02-13T02:38:20.949Z,3.77
2023-02-13T02:41:06.500Z,4.08
2023-02-13T02:46:32.394Z,3.45
2023-02-13T02:49:32.873Z,3.83
2023-02-13T02:52:18.708Z,3.77
2023-02-13T02:58:05.114Z,3.45
2023-02-13T03:00:56.561Z,3.87
2023-02-13T03:03:46.554Z,4.10
2023-02-13T03:09:28.792Z,3.62
2023-02-13T03:12:19.450Z,3.60
2023-02-13T03:14:50.579Z,3.70
2023-02-13T03:17:39.163Z,3.85
2023-02-13T03:20:36.624Z,3.87
2023-02-13T03:23:22.256Z,3.17
2023-02-13T03:28:57.151Z,3.55
2023-02-13T03:31:42.511Z,3.92
2023-02-13T03:34:16.053Z,3.80
2023-02-13T03:37:23.259Z,3.77
2023-02-13T03:40:08.663Z,3.90
2023-02-13T03:42:47.996Z,3.17
2023-02-13T03:45:43.444Z,3.50
2023-02-13T03:48:33.801Z,4.00
2023-02-13T03:51:06.614Z,3.60
2023-02-13T03:53:39.887Z,3.77
2023-02-13T03:56:30.742Z,3.85
2023-02-13T03:59:16.539Z,3.22
2023-02-13T04:01:56.191Z,3.52
2023-02-13T04:04:29.731Z,4.17
2023-02-13T04:07:03.166Z,3.85
2023-02-13T04:09:37.249Z,4.00
2023-02-13T04:12:22.946Z,4.05
2023-02-13T04:15:19.414Z,4.33
2023-02-13T04:18:02.335Z,4.00
2023-02-13T04:20:33.947Z,4.05
2023-02-13T04:23:10.645Z,4.25
2023-02-13T04:25:43.994Z,4.37
2023-02-13T04:28:14.873Z,4.30
2023-02-13T04:30:45.442Z,5.08
2023-02-13T04:33:16.073Z,4.72
2023-02-13T04:35:46.602Z,4.92
2023-02-13T04:38:17.881Z,5.47
2023-02-13T04:40:48.680Z,4.97
2023-02-13T04:43:19.429Z,5.00
2023-02-13T04:45:53.610Z,5.37
2023-02-13T04:48:24.169Z,5.25
2023-02-13T04:50:55.522Z,5.90
2023-02-13T04:53:26.804Z,5.47
2023-02-13T04:55:57.319Z,5.37
2023-02-13T04:58:27.876Z,5.00
2023-02-13T05:00:59.860Z,5.80
2023-02-13T05:03:31.026Z,5.80
2023-02-13T05:06:02.001Z,5.45
2023-02-13T05:08:32.516Z,5.45
2023-02-13T05:11:03.070Z,5.83
2023-02-13T05:13:34.040Z,5.72
2023-02-13T05:16:06.071Z,6.30
2023-02-13T05:18:36.946Z,6.58
2023-02-13T05:21:26.180Z,6.42
2023-02-13T05:23:56.841Z,6.28
2023-02-13T05:26:27.345Z,7.05
2023-02-13T05:29:15.539Z,6.90
2023-02-13T05:31:50.453Z,6.83
2023-02-13T05:34:22.747Z,6.85
2023-02-13T05:36:53.568Z,6.97
2023-02-13T05:39:24.432Z,7.65
2023-02-13T05:41:54.899Z,7.62
2023-02-13T05:44:26.698Z,8.25
2023-02-13T05:46:57.631Z,7.30
2023-02-13T05:49:28.249Z,7.53
2023-02-13T05:51:58.806Z,7.15
2023-02-13T05:54:29.366Z,6.83
2023-02-13T05:57:00.933Z,6.97
2023-02-13T05:59:31.616Z,6.45
2023-02-13T06:02:03.802Z,6.17
2023-02-13T06:04:34.244Z,6.87
2023-02-13T06:07:04.806Z,6.53
2023-02-13T06:09:36.373Z,6.35
2023-02-13T06:12:07.348Z,6.22
2023-02-13T06:14:38.030Z,6.20
2023-02-13T06:17:08.515Z,6.28
2023-02-13T06:19:38.953Z,5.12
2023-02-13T06:22:09.501Z,6.00
2023-02-13T06:24:39.973Z,6.10
2023-02-13T06:27:10.834Z,5.60
2023-02-13T06:29:41.468Z,5.17
2023-02-13T06:32:11.902Z,5.60
2023-02-13T06:34:42.383Z,5.10
2023-02-13T06:37:13.990Z,5.17
2023-02-13T06:39:44.602Z,5.17
2023-02-13T06:42:15.438Z,5.15
2023-02-13T06:44:46.002Z,4.50
2023-02-13T06:47:16.519Z,4.55
2023-02-13T06:49:46.976Z,5.00
2023-02-13T06:52:18.642Z,4.95
2023-02-13T06:54:50.751Z,4.35
2023-02-13T06:57:21.269Z,4.90
2023-02-13T06:59:51.758Z,4.50
2023-02-13T07:02:22.232Z,4.70
2023-02-13T07:04:52.993Z,4.15
2023-02-13T07:07:25.234Z,4.50
2023-02-13T07:09:55.889Z,4.80
2023-02-13T07:12:27.813Z,4.67
2023-02-13T07:14:58.303Z,4.83
2023-02-13T07:17:28.796Z,5.03
2023-02-13T07:19:59.488Z,4.70
2023-02-13T07:22:31.761Z,5.03
2023-02-13T07:25:02.830Z,4.83
2023-02-13T07:27:33.321Z,5.47
2023-02-13T07:30:03.992Z,4.83
2023-02-13T07:32:34.622Z,4.62
2023-02-13T07:35:05.909Z,4.72
2023-02-13T07:37:36.635Z,4.20
2023-02-13T07:40:08.551Z,4.58
2023-02-13T07:42:40.058Z,4.40
2023-02-13T07:45:12.136Z,3.95
2023-02-13T07:47:44.102Z,4.12
2023-02-13T07:50:15.113Z,3.77
2023-02-13T07:52:45.563Z,3.77
2023-02-13T07:55:17.824Z,3.90
2023-02-13T07:57:48.262Z,4.55
2023-02-13T08:00:20.133Z,4.62
2023-02-13T08:02:51.719Z,4.37
2023-02-13T08:05:22.414Z,4.72
2023-02-13T08:07:53.870Z,4.97
2023-02-13T08:10:42.482Z,5.37
2023-02-13T08:13:15.715Z,4.65
2023-02-13T08:15:47.322Z,4.90
2023-02-13T08:18:19.714Z,5.35
2023-02-13T08:20:51.413Z,5.00
2023-02-13T08:23:25.171Z,5.65
2023-02-13T08:25:57.454Z,5.05
2023-02-13T08:28:29.338Z,5.70
2023-02-13T08:31:00.430Z,5.70
2023-02-13T08:33:32.304Z,5.58
2023-02-13T08:36:05.134Z,5.53
2023-02-13T08:38:35.795Z,5.47
2023-02-13T08:41:06.678Z,5.50
2023-02-13T08:43:37.141Z,5.45
2023-02-13T08:46:08.456Z,5.72
2023-02-13T08:48:39.260Z,5.67
2023-02-13T08:51:12.124Z,4.92
2023-02-13T08:53:43.270Z,5.65
2023-02-13T08:56:14.086Z,6.15
2023-02-13T08:58:45.029Z,5.87
2023-02-13T09:01:16.904Z,5.65
2023-02-13T09:03:47.446Z,5.75
2023-02-13T09:06:18.005Z,6.08
2023-02-13T09:08:48.555Z,5.70
2023-02-13T09:11:20.074Z,5.78
2023-02-13T09:13:56.940Z,5.80
2023-02-13T09:16:27.504Z,5.97
2023-02-13T09:18:58.104Z,5.83
2023-02-13T09:21:28.866Z,5.40
2023-02-13T09:23:59.605Z,6.20
2023-02-13T09:26:30.247Z,5.60
2023-02-13T09:29:00.716Z,5.75
2023-02-13T09:31:31.433Z,5.55
2023-02-13T09:34:02.264Z,5.42
2023-02-13T09:36:33.745Z,5.10
2023-02-13T09:39:04.247Z,5.10
2023-02-13T09:41:37.639Z,5.20
2023-02-13T09:44:35.229Z,5.60
2023-02-13T09:47:17.745Z,5.78
2023-02-13T09:49:57.307Z,5.12
2023-02-13T09:52:30.668Z,4.92
2023-02-13T09:55:02.512Z,4.87
2023-02-13T09:57:39.098Z,4.42
2023-02-13T10:00:18.830Z,4.58
2023-02-13T10:02:58.425Z,4.83
2023-02-13T10:05:58.937Z,4.55
2023-02-13T10:08:53.993Z,4.22
2023-02-13T10:11:45.587Z,4.53
2023-02-13T10:14:21.887Z,4.58
2023-02-13T10:16:55.523Z,4.80
2023-02-13T10:19:47.000Z,4.70
2023-02-13T10:22:20.913Z,4.75
2023-02-13T10:25:00.410Z,4.97
2023-02-13T10:27:36.714Z,5.62
2023-02-13T10:30:22.658Z,4.90
2023-02-13T10:33:21.866Z,4.83
2023-02-13T10:36:15.026Z,4.40
2023-02-13T10:39:03.578Z,4.40
2023-02-13T10:41:41.517Z,4.33
2023-02-13T10:44:26.908Z,4.37
2023-02-13T10:47:21.671Z,3.95
2023-02-13T10:50:04.421Z,3.90
2023-02-13T10:52:41.005Z,3.80
2023-02-13T10:55:17.409Z,3.92
2023-02-13T10:58:12.451Z,4.22
2023-02-13T11:00:52.094Z,4.00
2023-02-13T11:03:27.224Z,3.95
2023-02-13T11:06:01.708Z,3.85
2023-02-13T11:08:36.990Z,3.58
2023-02-13T11:11:27.052Z,4.03
2023-02-13T11:14:21.474Z,3.75
2023-02-13T11:17:05.412Z,3.77
2023-02-13T11:19:42.009Z,3.65
2023-02-13T11:22:15.046Z,3.80
2023-02-13T11:24:48.417Z,3.60
2023-02-13T11:27:22.326Z,3.40
2023-02-13T11:29:56.505Z,3.50
2023-02-13T11:32:29.356Z,3.70
2023-02-13T11:35:03.169Z,3.50
2023-02-13T11:37:33.732Z,3.02
2023-02-13T11:40:07.353Z,3.67
2023-02-13T11:42:38.618Z,3.50
2023-02-13T11:45:24.160Z,3.85
2023-02-13T11:47:57.153Z,3.98
2023-02-13T11:50:35.264Z,4.50
2023-02-13T11:53:08.691Z,4.35
2023-02-13T11:55:42.886Z,4.67
2023-02-13T11:58:19.024Z,4.80
2023-02-13T12:00:49.825Z,4.22
2023-02-13T12:03:29.312Z,4.30
2023-02-13T12:06:18.672Z,4.25
2023-02-13T12:08:52.200Z,4.78
2023-02-13T12:11:40.425Z,4.70
2023-02-13T12:14:13.888Z,4.70
2023-02-13T12:16:47.618Z,4.28
2023-02-13T12:19:23.841Z,4.25
2023-02-13T12:22:00.057Z,4.33
2023-02-13T12:24:40.600Z,4.53
2023-02-13T12:27:33.740Z,4.80
2023-02-13T12:30:07.241Z,4.85
2023-02-13T12:32:50.387Z,4.45
2023-02-13T12:35:43.158Z,4.22
2023-02-13T12:38:32.832Z,4.47
2023-02-13T12:41:24.600Z,5.22
2023-02-13T12:44:10.338Z,4.95
2023-02-13T12:46:59.159Z,4.80
2023-02-13T12:49:49.371Z,4.80
2023-02-13T12:52:28.625Z,4.45
2023-02-13T12:55:05.227Z,4.17
2023-02-13T12:57:41.635Z,4.28
2023-02-13T13:00:39.748Z,3.92
2023-02-13T13:03:18.917Z,4.60
2023-02-13T13:06:03.525Z,4.87
2023-02-13T13:08:56.332Z,4.75
2023-02-13T13:11:51.173Z,4.45
2023-02-13T13:14:40.877Z,4.37
2023-02-13T13:17:17.370Z,4.35
2023-02-13T13:20:09.797Z,4.12
2023-02-13T13:22:58.378Z,4.30
2023-02-13T13:25:34.800Z,4.42
2023-02-13T13:28:08.563Z,4.12
2023-02-13T13:30:42.377Z,4.12
2023-02-13T13:33:19.061Z,3.58
2023-02-13T13:36:10.453Z,3.92
2023-02-13T13:38:44.027Z,4.05
2023-02-13T13:41:35.187Z,4.20
2023-02-13T13:44:37.558Z,4.20
2023-02-13T13:47:34.462Z,3.67
2023-02-13T13:50:07.166Z,3.67
2023-02-13T13:52:38.881Z,3.50
2023-02-13T13:55:12.247Z,3.80
2023-02-13T13:57:45.846Z,3.50
2023-02-13T14:00:19.320Z,3.35
2023-02-13T14:03:01.769Z,3.70
2023-02-13T14:05:34.274Z,3.90
2023-02-13T14:08:07.866Z,3.55
2023-02-13T14:10:41.258Z,3.50
2023-02-13T14:13:13.216Z,4.22
2023-02-13T14:15:46.737Z,4.30
2023-02-13T14:18:20.418Z,4.45
2023-02-13T14:20:54.033Z,4.47
2023-02-13T14:23:39.812Z,4.05
2023-02-13T14:26:19.357Z,3.85
2023-02-13T14:28:55.529Z,4.45
2023-02-13T14:31:31.717Z,5.05
2023-02-13T14:34:18.423Z,4.60
2023-02-13T14:36:52.938Z,4.72
2023-02-13T14:39:29.383Z,4.37
2023-02-13T14:42:02.559Z,4.80
2023-02-13T14:44:38.691Z,5.15
2023-02-13T14:47:15.141Z,5.12
2023-02-13T14:49:47.097Z,5.92
2023-02-13T14:52:29.712Z,5.00
2023-02-13T14:55:06.081Z,5.22
2023-02-13T14:57:46.159Z,4.78
2023-02-13T15:00:28.846Z,4.87
2023-02-13T15:03:08.396Z,4.72
2023-02-13T15:05:40.436Z,5.35
2023-02-13T15:08:16.570Z,5.62
2023-02-13T15:10:49.934Z,5.08
2023-02-13T15:13:28.311Z,4.90
2023-02-13T15:16:11.096Z,6.17
2023-02-13T15:18:48.163Z,5.12
2023-02-13T15:21:22.002Z,6.10
2023-02-13T15:23:58.214Z,7.03
2023-02-13T15:26:29.790Z,7.30
2023-02-13T15:29:11.388Z,8.18
2023-02-13T15:31:38.919Z,8.88
2023-02-13T15:34:25.195Z,7.22
2023-02-13T15:36:57.820Z,6.83
2023-02-13T15:39:31.428Z,5.65
2023-02-13T15:42:04.348Z,6.45
2023-02-13T15:44:38.367Z,10.38
2023-02-13T15:47:20.948Z,8.58
2023-02-13T15:49:52.331Z,5.97
2023-02-13T15:52:34.625Z,5.17
2023-02-13T15:55:05.876Z,5.47
2023-02-13T15:57:36.806Z,5.22
2023-02-13T16:00:10.544Z,5.67
2023-02-13T16:02:47.925Z,5.90
2023-02-13T16:05:32.537Z,7.20
2023-02-13T16:07:54.774Z,7.58
2023-02-13T16:10:36.651Z,6.60
2023-02-13T16:13:08.946Z,6.42
2023-02-13T16:15:39.757Z,6.25
2023-02-13T16:18:15.861Z,5.47
2023-02-13T16:20:46.636Z,6.17
2023-02-13T16:23:21.828Z,5.67
2023-02-13T16:25:53.246Z,5.55
2023-02-13T16:28:27.514Z,5.90
2023-02-13T16:31:01.549Z,6.28
2023-02-13T16:33:37.647Z,6.35
2023-02-13T16:36:14.369Z,7.85
2023-02-13T16:38:50.373Z,8.93
2023-02-13T16:41:25.960Z,12.55
2023-02-13T16:44:04.178Z,16.95
2023-02-13T16:46:40.272Z,10.85
2023-02-13T16:49:13.767Z,9.63
2023-02-13T16:51:56.791Z,7.85
2023-02-13T16:54:50.110Z,8.03
2023-02-13T16:57:23.787Z,6.78
2023-02-13T16:59:57.314Z,6.22
2023-02-13T17:02:40.096Z,6.10
2023-02-13T17:05:14.318Z,9.38
2023-02-13T17:07:51.420Z,9.98
2023-02-13T17:10:27.574Z,9.38
2023-02-13T17:13:02.978Z,7.10
2023-02-13T17:15:34.056Z,5.28
2023-02-13T17:18:05.486Z,5.12
2023-02-13T17:20:37.953Z,5.50
2023-02-13T17:23:11.036Z,4.78
2023-02-13T17:25:42.934Z,4.75
2023-02-13T17:28:19.415Z,4.95
2023-02-13T17:30:53.301Z,4.78
2023-02-13T17:33:27.016Z,4.42
2023-02-13T17:35:58.158Z,4.25
2023-02-13T17:38:28.866Z,4.25
2023-02-13T17:41:01.680Z,4.17
2023-02-13T17:43:32.363Z,4.10
2023-02-13T17:46:03.536Z,4.08
2023-02-13T17:48:34.705Z,3.92
2023-02-13T17:51:05.824Z,5.20
2023-02-13T17:53:36.884Z,4.87
2023-02-13T17:56:07.381Z,5.08
2023-02-13T17:58:38.025Z,6.20
2023-02-13T18:01:10.619Z,6.35
2023-02-13T18:03:41.304Z,6.15
2023-02-13T18:06:14.873Z,5.40
2023-02-13T18:08:45.371Z,6.25
2023-02-13T18:11:16.480Z,6.75
2023-02-13T18:13:48.767Z,7.30
2023-02-13T18:16:19.366Z,7.80
2023-02-13T18:18:49.930Z,6.80
2023-02-13T18:21:25.088Z,8.23
2023-02-13T18:23:56.031Z,10.65
2023-02-13T18:26:26.738Z,11.73
2023-02-13T18:28:57.305Z,10.30
2023-02-13T18:31:28.044Z,10.40
2023-02-13T18:33:59.228Z,9.88
2023-02-13T18:36:30.048Z,8.33
2023-02-13T18:39:01.949Z,9.50
2023-02-13T18:41:32.633Z,9.48
2023-02-13T18:44:03.186Z,8.23
2023-02-13T18:46:33.948Z,8.63
2023-02-13T18:49:05.513Z,7.67
2023-02-13T18:51:36.299Z,7.92
2023-02-13T18:54:07.753Z,7.83
2023-02-13T18:56:38.440Z,7.37
2023-02-13T18:59:09.037Z,6.55
2023-02-13T19:01:40.249Z,7.65
2023-02-13T19:04:13.074Z,6.37
2023-02-13T19:06:45.724Z,7.12
2023-02-13T19:09:16.432Z,7.17
2023-02-13T19:11:48.959Z,7.28
2023-02-13T19:14:20.065Z,5.90
2023-02-13T19:16:51.975Z,6.33
2023-02-13T19:19:22.496Z,6.40
2023-02-13T19:21:54.105Z,6.05
2023-02-13T19:24:24.699Z,5.80
2023-02-13T19:26:56.578Z,6.60
2023-02-13T19:29:28.551Z,6.97
2023-02-13T19:31:59.231Z,6.50
2023-02-13T19:34:31.181Z,6.50
2023-02-13T19:37:01.967Z,6.45
2023-02-13T19:39:32.658Z,6.65
2023-02-13T19:42:03.324Z,5.78
2023-02-13T19:44:33.834Z,4.87
2023-02-13T19:47:04.376Z,5.12
2023-02-13T19:49:35.305Z,5.20
2023-02-13T19:52:05.908Z,5.20
2023-02-13T19:54:36.901Z,5.08
2023-02-13T19:57:07.458Z,5.72
2023-02-13T19:59:38.119Z,4.40
2023-02-13T20:02:10.170Z,4.75
2023-02-13T20:04:42.321Z,4.70
2023-02-13T20:07:13.023Z,4.75
2023-02-13T20:09:45.113Z,4.62
2023-02-13T20:12:15.603Z,5.35
2023-02-13T20:14:46.521Z,5.78
2023-02-13T20:17:18.009Z,5.80
2023-02-13T20:19:54.508Z,5.30
2023-02-13T20:22:24.971Z,5.05
2023-02-13T20:24:55.768Z,5.50
2023-02-13T20:27:26.603Z,5.65
2023-02-13T20:30:06.310Z,5.83
2023-02-13T20:32:29.716Z,6.47
2023-02-13T20:35:00.406Z,6.08
2023-02-13T20:37:31.727Z,5.62
2023-02-13T20:40:02.477Z,5.65
2023-02-13T20:42:35.252Z,6.00
2023-02-13T20:45:06.496Z,6.95
2023-02-13T20:47:37.125Z,7.03
2023-02-13T20:50:08.763Z,6.28
2023-02-13T20:52:39.501Z,6.22
2023-02-13T20:55:10.552Z,5.58
2023-02-13T20:57:41.064Z,6.03
2023-02-13T21:00:13.728Z,6.15
2023-02-13T21:02:45.097Z,6.17
2023-02-13T21:05:16.898Z,5.45
2023-02-13T21:07:49.107Z,5.62
2023-02-13T21:10:21.130Z,5.50
2023-02-13T21:12:52.078Z,5.85
2023-02-13T21:15:22.877Z,5.70
2023-02-13T21:17:53.380Z,5.60
2023-02-13T21:20:23.908Z,5.83
2023-02-13T21:22:55.266Z,5.58
2023-02-13T21:25:26.128Z,5.60
2023-02-13T21:27:57.857Z,5.53
2023-02-13T21:30:28.507Z,5.78
2023-02-13T21:32:59.282Z,6.53
2023-02-13T21:35:29.986Z,6.85
2023-02-13T21:38:00.589Z,5.47
2023-02-13T21:40:31.154Z,6.05
2023-02-13T21:43:01.778Z,5.65
2023-02-13T21:45:32.585Z,5.92
2023-02-13T21:48:03.250Z,5.75
2023-02-13T21:50:33.719Z,5.67
2023-02-13T21:53:04.254Z,5.80
2023-02-13T21:55:35.036Z,5.80
2023-02-13T21:58:05.585Z,5.20
2023-02-13T22:00:37.522Z,5.45
2023-02-13T22:03:08.054Z,5.58
2023-02-13T22:05:41.414Z,5.25
2023-02-13T22:08:11.883Z,5.45
2023-02-13T22:10:42.464Z,5.53
2023-02-13T22:13:12.945Z,5.42
2023-02-13T22:15:43.714Z,5.58
2023-02-13T22:18:15.179Z,5.15
2023-02-13T22:20:45.861Z,4.97
2023-02-13T22:23:16.494Z,5.17
2023-02-13T22:25:51.985Z,4.87
2023-02-13T22:28:22.854Z,5.05
2023-02-13T22:30:53.923Z,5.15
2023-02-13T22:33:24.776Z,5.78
2023-02-13T22:35:55.433Z,5.47
2023-02-13T22:38:25.944Z,6.28
2023-02-13T22:40:57.666Z,5.80
2023-02-13T22:43:29.529Z,5.58
2023-02-13T22:46:15.322Z,5.60
2023-02-13T22:48:47.012Z,5.37
2023-02-13T22:51:20.495Z,5.85
2023-02-13T22:53:53.029Z,5.90
2023-02-13T22:56:24.608Z,6.00
2023-02-13T22:58:58.620Z,6.00
2023-02-13T23:01:30.558Z,5.97
2023-02-13T23:04:01.386Z,5.92
2023-02-13T23:06:33.605Z,9.43
2023-02-13T23:09:04.160Z,8.95
2023-02-13T23:11:52.571Z,7.80
2023-02-13T23:14:26.810Z,6.58
2023-02-13T23:17:15.166Z,6.80
2023-02-13T23:19:45.934Z,6.95
2023-02-13T23:22:16.545Z,7.22
2023-02-13T23:24:48.364Z,7.22
2023-02-13T23:27:19.025Z,7.12
2023-02-13T23:29:49.779Z,6.40
2023-02-13T23:32:20.577Z,6.58
2023-02-13T23:34:51.294Z,5.40
2023-02-13T23:37:21.904Z,5.97
2023-02-13T23:39:52.377Z,6.47
2023-02-13T23:42:22.863Z,6.50
2023-02-13T23:44:53.352Z,5.95
2023-02-13T23:47:23.860Z,6.12
2023-02-13T23:49:54.343Z,5.33
2023-02-13T23:52:24.863Z,5.50
2023-02-13T23:54:55.347Z,5.47
2023-02-13T23:57:25.912Z,5.40
2023-02-13T23:59:56.369Z,5.80
